High Jupiter — VREK3 — position and weather

sailwx.info

Track history (hours):
 
Tides and Currents Weather Stations Pressure Air Temp Water Temp Dewpoint Dewpoint Depression Visibility Wind Speed Wind Dir Waves Ship Positions

High Jupiter

Last reported at 2017-Oct-31 04:52 UTC. Time now 2017-Nov-23 16:52 UTC.
Position N 25°16' W 114°03'.
Warning: this ship's position is 23 days out of date.

Length 183 m; draft 10.9 m.

Type: Tanker. MMSI: 477141500.

Date/timePositionNaut miles runAvg speedWind from/ knotsBaromVisibWave heightAir tempDewpointWater temp
2017-Oct-31 04:52N 25°16' W 114°03'3813.1
2017-Oct-31 01:56N 25°47' W 114°29'12712.9
2017-Oct-30 16:07N 27°29' W 115°54'2313.3
2017-Oct-30 14:22N 27°47' W 116°10'2513.0
2017-Oct-30 12:26N 28°08' W 116°26'4113.0
2017-Oct-30 09:17N 28°40' W 116°54'413.2
2017-Oct-30 08:58N 28°44' W 116°57'613.2
2017-Oct-30 08:30N 28°49' W 117°01'813.0
2017-Oct-30 07:54N 28°55' W 117°07'512.9
2017-Oct-30 07:30N 28°59' W 117°10'16912.9
2017-Oct-29 18:25N 31°14' W 119°07'512.4
2017-Oct-29 18:00N 31°18' W 119°11'912.4
2017-Oct-29 17:15N 31°26' W 119°17'311.2
2017-Oct-29 16:59N 31°28' W 119°20'611.5
2017-Oct-29 16:29N 31°33' W 119°24'2212.7
2017-Oct-29 14:44N 31°50' W 119°39'2113.0
2017-Oct-29 13:06N 32°08' W 119°54'212.7
2017-Oct-29 12:57N 32°09' W 119°55'1213.2
2017-Oct-29 12:04N 32°19' W 120°03'113.0
2017-Oct-29 12:01N 32°19' W 120°04'1012.9
2017-Oct-29 11:16N 32°27' W 120°11'1913.1
2017-Oct-29 09:47N 32°42' W 120°24'413.4
2017-Oct-29 09:30N 32°45' W 120°27'713.6
2017-Oct-29 09:00N 32°51' W 120°32'713.5
2017-Oct-29 08:28N 32°57' W 120°37'613.3
2017-Oct-29 08:00N 33°02' W 120°42'613.2
2017-Oct-29 07:30N 33°07' W 120°46'713.5
2017-Oct-29 07:00N 33°12' W 120°51'713.5
2017-Oct-29 06:31N 33°18' W 120°56'713.8
2017-Oct-29 06:00N 33°23' W 121°01'713.7
2017-Oct-29 05:30N 33°29' W 121°06'713.6
2017-Oct-29 05:00N 33°34' W 121°11'713.4
2017-Oct-29 04:30N 33°39' W 121°16'713.2
2017-Oct-29 04:00N 33°45' W 121°21'11512.7
2017-Oct-28 19:00N 35°23' W 122°32'713.1
2017-Oct-28 18:30N 35°29' W 122°35'713.5
2017-Oct-28 18:00N 35°35' W 122°38'713.5
2017-Oct-28 17:30N 35°41' W 122°41'713.3
2017-Oct-28 17:00N 35°48' W 122°44'713.3
2017-Oct-28 16:30N 35°54' W 122°47'713.2
2017-Oct-28 16:00N 36°00' W 122°50'713.2
2017-Oct-28 15:30N 36°06' W 122°53'812.9
2017-Oct-28 14:52N 36°14' W 122°57'512.7
2017-Oct-28 14:30N 36°18' W 122°59'612.5
2017-Oct-28 14:00N 36°24' W 123°02'612.5
2017-Oct-28 13:30N 36°30' W 123°05'612.5
2017-Oct-28 13:00N 36°35' W 123°08'612.6
2017-Oct-28 12:30N 36°41' W 123°11'612.5
2017-Oct-28 12:00N 36°47' W 123°14'612.4
2017-Oct-28 11:30N 36°53' W 123°17'612.6
2017-Oct-28 11:00N 36°59' W 123°19'612.7
2017-Oct-28 10:30N 37°05' W 123°20'612.8
2017-Oct-28 10:00N 37°12' W 123°20'612.6
2017-Oct-28 09:30N 37°18' W 123°21'612.6
2017-Oct-28 09:00N 37°24' W 123°21'611.6
2017-Oct-28 08:30N 37°28' W 123°16'612.6
2017-Oct-28 08:00N 37°32' W 123°09'612.7
2017-Oct-28 07:30N 37°35' W 123°02'612.9
2017-Oct-28 07:00N 37°39' W 122°55'613.0
2017-Oct-28 06:30N 37°42' W 122°48'612.4
2017-Oct-28 06:00N 37°44' W 122°41'5 9.7
2017-Oct-28 05:30N 37°47' W 122°36'713.3
2017-Oct-28 05:00N 37°50' W 122°28'4 8.5
2017-Oct-28 04:31N 37°49' W 122°23'510.0
2017-Oct-28 04:00N 37°44' W 122°21'0 0.3
2017-Oct-28 03:30N 37°44' W 122°21'0 0.0
2017-Oct-28 03:00N 37°44' W 122°21'0 0.1
2017-Oct-28 02:30N 37°44' W 122°21'0 0.2
2017-Oct-28 02:00N 37°44' W 122°21'0 0.1
2017-Oct-28 01:30N 37°44' W 122°21'0 0.1
2017-Oct-28 01:00N 37°44' W 122°21'0 0.0
2017-Oct-28 00:30N 37°44' W 122°21'0 0.0
2017-Oct-28 00:00N 37°44' W 122°21'0 0.0
2017-Oct-27 23:30N 37°44' W 122°21'0 0.1
2017-Oct-27 23:00N 37°44' W 122°21'0 0.0
2017-Oct-27 22:30N 37°44' W 122°21'0 0.0
2017-Oct-27 22:00N 37°44' W 122°21'0 0.1
2017-Oct-27 21:30N 37°44' W 122°21'0 0.0
2017-Oct-27 21:00N 37°44' W 122°21'0 0.0
2017-Oct-27 20:30N 37°44' W 122°21'0 0.1
2017-Oct-27 20:00N 37°44' W 122°21'0 0.2
2017-Oct-27 19:30N 37°44' W 122°21'0 0.1
2017-Oct-27 19:00N 37°44' W 122°21'0 0.2
2017-Oct-27 18:30N 37°44' W 122°21'0 0.7
2017-Oct-27 18:00N 37°44' W 122°21'3 5.9
2017-Oct-27 17:30N 37°47' W 122°22'4 8.0
2017-Oct-27 17:00N 37°50' W 122°24'5 9.5
2017-Oct-27 16:30N 37°55' W 122°25'1 1.3
2017-Oct-27 16:00N 37°55' W 122°25'0 0.0
2017-Oct-27 15:30N 37°55' W 122°25'0 0.0
2017-Oct-27 15:00N 37°55' W 122°25'0 0.0
2017-Oct-27 14:30N 37°55' W 122°25'0 0.1
2017-Oct-27 14:00N 37°55' W 122°25'0 0.1
2017-Oct-27 13:30N 37°55' W 122°25'0 0.0
2017-Oct-27 13:00N 37°55' W 122°25'0 0.1
2017-Oct-27 12:30N 37°55' W 122°25'0 0.1
2017-Oct-27 12:00N 37°55' W 122°25'0 0.0
2017-Oct-27 11:30N 37°55' W 122°25'0 0.0
2017-Oct-27 11:00N 37°55' W 122°25'0 0.0
2017-Oct-27 10:30N 37°55' W 122°25'0 0.0
2017-Oct-27 10:00N 37°55' W 122°25'0 0.1
2017-Oct-27 09:30N 37°55' W 122°25'0 0.1
2017-Oct-27 09:00N 37°55' W 122°25'0 0.0
2017-Oct-27 08:30N 37°55' W 122°25'0 0.0
2017-Oct-27 08:00N 37°55' W 122°25'0 0.0
2017-Oct-27 07:30N 37°55' W 122°25'0 0.0
2017-Oct-27 07:00N 37°55' W 122°25'0 0.0
2017-Oct-27 06:30N 37°55' W 122°25'0 0.0
2017-Oct-27 06:00N 37°55' W 122°25'0 0.0
2017-Oct-27 05:30N 37°55' W 122°25'0 0.0
2017-Oct-27 05:00N 37°55' W 122°25'0 0.0
2017-Oct-27 04:30N 37°55' W 122°25'0 0.0
2017-Oct-27 04:00N 37°55' W 122°25'0 0.0
2017-Oct-27 03:30N 37°55' W 122°25'0 0.0
2017-Oct-27 02:57N 37°55' W 122°25'0 0.0
2017-Oct-27 02:30N 37°55' W 122°25'0 0.0
2017-Oct-27 02:00N 37°55' W 122°25'0 0.1
2017-Oct-27 01:27N 37°55' W 122°25'0 0.1
2017-Oct-27 01:00N 37°55' W 122°25'0 0.0
2017-Oct-27 00:30N 37°55' W 122°25'0 0.0
2017-Oct-27 00:00N 37°55' W 122°25'0 0.0
2017-Oct-26 23:30N 37°55' W 122°25'0 0.0
2017-Oct-26 23:00N 37°55' W 122°25'0 0.0
2017-Oct-26 22:30N 37°55' W 122°25'0 0.0
2017-Oct-26 22:00N 37°55' W 122°25'0 0.0
2017-Oct-26 21:30N 37°55' W 122°25'0 0.0
2017-Oct-26 21:00N 37°55' W 122°25'0 0.0
2017-Oct-26 20:30N 37°55' W 122°25'0 0.0
2017-Oct-26 20:00N 37°55' W 122°25'0 0.0
2017-Oct-26 19:30N 37°55' W 122°25'0 0.0
2017-Oct-26 18:57N 37°55' W 122°25'0 0.0
2017-Oct-26 18:30N 37°55' W 122°25'0 0.0
2017-Oct-26 18:00N 37°55' W 122°25'0 0.0
2017-Oct-26 17:30N 37°55' W 122°25'0 0.1
2017-Oct-26 17:00N 37°55' W 122°25'0 0.1
2017-Oct-26 16:30N 37°55' W 122°25'0 0.0
2017-Oct-26 16:00N 37°55' W 122°25'0 0.0
2017-Oct-26 15:30N 37°55' W 122°25'0 0.0
2017-Oct-26 15:00N 37°55' W 122°25'0 0.0
2017-Oct-26 14:30N 37°55' W 122°25'0 0.0
2017-Oct-26 14:00N 37°55' W 122°25'0 0.0
2017-Oct-26 13:30N 37°55' W 122°25'0 0.0
2017-Oct-26 13:00N 37°55' W 122°25'0 0.1
2017-Oct-26 12:30N 37°55' W 122°25'0 0.1
2017-Oct-26 12:00N 37°55' W 122°25'0 0.0
2017-Oct-26 11:30N 37°55' W 122°25'0 0.1
2017-Oct-26 11:00N 37°55' W 122°25'0 0.1
2017-Oct-26 10:30N 37°55' W 122°25'0 0.0
2017-Oct-26 10:00N 37°55' W 122°25'0 0.1
2017-Oct-26 09:30N 37°55' W 122°25'0 0.1
2017-Oct-26 09:00N 37°55' W 122°25'0 0.0
2017-Oct-26 08:30N 37°55' W 122°25'0 0.0
2017-Oct-26 08:00N 37°55' W 122°25'0 0.0
2017-Oct-26 07:30N 37°55' W 122°25'0 0.0
2017-Oct-26 07:00N 37°55' W 122°25'0 0.0
2017-Oct-26 06:30N 37°55' W 122°25'0 0.0
2017-Oct-26 06:00N 37°55' W 122°25'0 0.0
2017-Oct-26 05:30N 37°55' W 122°25'0 0.0
2017-Oct-26 05:00N 37°55' W 122°25'0 0.0
2017-Oct-26 04:30N 37°55' W 122°25'0 0.0
2017-Oct-26 04:00N 37°55' W 122°25'0 0.0
2017-Oct-26 03:30N 37°55' W 122°25'0 0.0
2017-Oct-26 03:00N 37°55' W 122°25'0 0.0
2017-Oct-26 02:30N 37°55' W 122°25'0 0.0
2017-Oct-26 02:00N 37°55' W 122°25'0 0.1
2017-Oct-26 01:30N 37°55' W 122°25'0 0.0
2017-Oct-26 01:00N 37°55' W 122°25'0 0.1
2017-Oct-26 00:30N 37°55' W 122°25'0 0.0
2017-Oct-25 21:36N 37°55' W 122°25'0 0.5
2017-Oct-25 21:30N 37°55' W 122°25'0 0.0
2017-Oct-25 21:00N 37°55' W 122°25'0 0.1
2017-Oct-25 20:30N 37°55' W 122°25'0 0.0
2017-Oct-25 20:00N 37°55' W 122°25'0 0.0
2017-Oct-25 19:30N 37°55' W 122°25'0 0.0
2017-Oct-25 19:00N 37°55' W 122°25'0 0.0
2017-Oct-25 18:30N 37°55' W 122°25'0 0.0
2017-Oct-25 18:00N 37°55' W 122°25'0 0.0
2017-Oct-25 17:30N 37°55' W 122°25'0 0.0
2017-Oct-25 17:00N 37°55' W 122°25'0 0.0
2017-Oct-25 16:30N 37°55' W 122°25'0 0.0
2017-Oct-25 16:00N 37°55' W 122°25'0 0.0
2017-Oct-25 15:30N 37°55' W 122°25'0 0.0
2017-Oct-25 15:00N 37°55' W 122°25'0 0.1
2017-Oct-25 14:30N 37°55' W 122°25'0 0.0
2017-Oct-25 14:00N 37°55' W 122°25'0 0.1
2017-Oct-25 13:30N 37°55' W 122°25'0 0.0
2017-Oct-25 12:57N 37°55' W 122°25'0 0.0
2017-Oct-25 12:30N 37°55' W 122°25'0 0.0
2017-Oct-25 12:00N 37°55' W 122°25'0 0.0
2017-Oct-25 11:30N 37°55' W 122°25'0 0.0
2017-Oct-25 11:00N 37°55' W 122°25'0 0.0
2017-Oct-25 10:30N 37°55' W 122°25'0 0.1
2017-Oct-25 10:00N 37°55' W 122°25'0 0.0
2017-Oct-25 09:30N 37°55' W 122°25'0 0.1
2017-Oct-25 09:00N 37°55' W 122°25'0 0.0
2017-Oct-25 08:30N 37°55' W 122°25'0 0.0
2017-Oct-25 08:00N 37°55' W 122°25'0 0.0
2017-Oct-25 07:30N 37°55' W 122°25'0 0.0
2017-Oct-25 07:00N 37°55' W 122°25'0 0.0
2017-Oct-25 06:30N 37°55' W 122°25'1 1.1
2017-Oct-25 06:00N 37°55' W 122°25'5 9.3
2017-Oct-25 05:30N 37°51' W 122°24'4 8.7
2017-Oct-25 05:00N 37°49' W 122°29'611.8
2017-Oct-25 04:30N 37°46' W 122°36'510.0
2017-Oct-25 04:00N 37°43' W 122°41'612.4
2017-Oct-25 03:30N 37°37' W 122°40'612.7
2017-Oct-25 03:00N 37°31' W 122°40'612.8
2017-Oct-25 02:30N 37°24' W 122°40'612.3
2017-Oct-25 02:00N 37°18' W 122°40'611.9
2017-Oct-25 01:30N 37°12' W 122°40'612.3
2017-Oct-25 01:00N 37°06' W 122°40'612.3
2017-Oct-25 00:30N 36°60' W 122°40'612.5
2017-Oct-25 00:00N 36°54' W 122°40'612.7
2017-Oct-24 23:30N 36°47' W 122°40'9411.0
2017-Oct-24 14:57N 35°14' W 122°34'1312.8
2017-Oct-24 13:57N 35°01' W 122°32'612.8
2017-Oct-24 13:28N 34°55' W 122°31'612.6
2017-Oct-24 13:00N 34°49' W 122°31'613.0
2017-Oct-24 12:30N 34°42' W 122°30'612.8
2017-Oct-24 12:00N 34°36' W 122°30'712.9
2017-Oct-24 11:30N 34°29' W 122°30'712.9
2017-Oct-24 10:57N 34°22' W 122°30'913.1
2017-Oct-24 10:18N 34°14' W 122°29'413.1
2017-Oct-24 10:00N 34°10' W 122°28'612.9
2017-Oct-24 09:30N 34°04' W 122°28'713.1
2017-Oct-24 09:00N 33°57' W 122°27'713.1
2017-Oct-24 08:30N 33°51' W 122°27'612.9
2017-Oct-24 08:00N 33°44' W 122°27'613.0
2017-Oct-24 07:30N 33°38' W 122°26'613.0
2017-Oct-24 07:00N 33°31' W 122°25'612.8
2017-Oct-24 06:30N 33°25' W 122°25'612.6
2017-Oct-24 06:00N 33°19' W 122°24'612.6
2017-Oct-24 05:30N 33°12' W 122°24'612.6
2017-Oct-24 05:00N 33°06' W 122°23'612.7
2017-Oct-24 04:30N 32°60' W 122°23'612.0
2017-Oct-24 04:00N 32°54' W 122°23'4 8.6
2017-Oct-24 03:30N 32°49' W 122°23'510.4
2017-Oct-24 03:00N 32°44' W 122°22'612.3
2017-Oct-24 02:29N 32°38' W 122°22'612.2
2017-Oct-24 02:00N 32°32' W 122°21'612.0
2017-Oct-24 01:30N 32°26' W 122°20'612.1
2017-Oct-24 01:00N 32°20' W 122°20'611.8
2017-Oct-24 00:30N 32°14' W 122°19'612.0
2017-Oct-24 00:00N 32°08' W 122°19'611.8
2017-Oct-23 23:30N 32°02' W 122°19'611.7
2017-Oct-23 23:00N 31°56' W 122°18'611.9
2017-Oct-23 22:30N 31°50' W 122°18'612.0
2017-Oct-23 22:00N 31°44' W 122°17'611.9
2017-Oct-23 21:30N 31°38' W 122°17'13312.1
2017-Oct-23 10:33N 29°26' W 122°07'111.4
2017-Oct-23 10:30N 29°25' W 122°07'  
Track history (hours):
 
Tides and Currents Weather Stations Pressure Air Temp Water Temp Dewpoint Dewpoint Depression Visibility Wind Speed Wind Dir Waves Ship Positions

High Jupiter

Last reported at 2017-Oct-31 04:52 UTC. Time now 2017-Nov-23 16:52 UTC.
Position N 25°16' W 114°03'.
Warning: this ship's position is 23 days out of date.

Length 183 m; draft 10.9 m.

Type: Tanker. MMSI: 477141500.

Date/timePositionNaut miles runAvg speedWind from/ knotsBaromVisibWave heightAir tempDewpointWater temp
2017-Oct-31 04:52N 25°16' W 114°03'3813.1
2017-Oct-31 01:56N 25°47' W 114°29'12712.9
2017-Oct-30 16:07N 27°29' W 115°54'2313.3
2017-Oct-30 14:22N 27°47' W 116°10'2513.0
2017-Oct-30 12:26N 28°08' W 116°26'4113.0
2017-Oct-30 09:17N 28°40' W 116°54'413.2
2017-Oct-30 08:58N 28°44' W 116°57'613.2
2017-Oct-30 08:30N 28°49' W 117°01'813.0
2017-Oct-30 07:54N 28°55' W 117°07'512.9
2017-Oct-30 07:30N 28°59' W 117°10'16912.9
2017-Oct-29 18:25N 31°14' W 119°07'512.4
2017-Oct-29 18:00N 31°18' W 119°11'912.4
2017-Oct-29 17:15N 31°26' W 119°17'311.2
2017-Oct-29 16:59N 31°28' W 119°20'611.5
2017-Oct-29 16:29N 31°33' W 119°24'2212.7
2017-Oct-29 14:44N 31°50' W 119°39'2113.0
2017-Oct-29 13:06N 32°08' W 119°54'212.7
2017-Oct-29 12:57N 32°09' W 119°55'1213.2
2017-Oct-29 12:04N 32°19' W 120°03'113.0
2017-Oct-29 12:01N 32°19' W 120°04'1012.9
2017-Oct-29 11:16N 32°27' W 120°11'1913.1
2017-Oct-29 09:47N 32°42' W 120°24'413.4
2017-Oct-29 09:30N 32°45' W 120°27'713.6
2017-Oct-29 09:00N 32°51' W 120°32'713.5
2017-Oct-29 08:28N 32°57' W 120°37'613.3
2017-Oct-29 08:00N 33°02' W 120°42'613.2
2017-Oct-29 07:30N 33°07' W 120°46'713.5
2017-Oct-29 07:00N 33°12' W 120°51'713.5
2017-Oct-29 06:31N 33°18' W 120°56'713.8
2017-Oct-29 06:00N 33°23' W 121°01'713.7
2017-Oct-29 05:30N 33°29' W 121°06'713.6
2017-Oct-29 05:00N 33°34' W 121°11'713.4
2017-Oct-29 04:30N 33°39' W 121°16'713.2
2017-Oct-29 04:00N 33°45' W 121°21'11512.7
2017-Oct-28 19:00N 35°23' W 122°32'713.1
2017-Oct-28 18:30N 35°29' W 122°35'713.5
2017-Oct-28 18:00N 35°35' W 122°38'713.5
2017-Oct-28 17:30N 35°41' W 122°41'713.3
2017-Oct-28 17:00N 35°48' W 122°44'713.3
2017-Oct-28 16:30N 35°54' W 122°47'713.2
2017-Oct-28 16:00N 36°00' W 122°50'713.2
2017-Oct-28 15:30N 36°06' W 122°53'812.9
2017-Oct-28 14:52N 36°14' W 122°57'512.7
2017-Oct-28 14:30N 36°18' W 122°59'612.5
2017-Oct-28 14:00N 36°24' W 123°02'612.5
2017-Oct-28 13:30N 36°30' W 123°05'612.5
2017-Oct-28 13:00N 36°35' W 123°08'612.6
2017-Oct-28 12:30N 36°41' W 123°11'612.5
2017-Oct-28 12:00N 36°47' W 123°14'612.4
2017-Oct-28 11:30N 36°53' W 123°17'612.6
2017-Oct-28 11:00N 36°59' W 123°19'612.7
2017-Oct-28 10:30N 37°05' W 123°20'612.8
2017-Oct-28 10:00N 37°12' W 123°20'612.6
2017-Oct-28 09:30N 37°18' W 123°21'612.6
2017-Oct-28 09:00N 37°24' W 123°21'611.6
2017-Oct-28 08:30N 37°28' W 123°16'612.6
2017-Oct-28 08:00N 37°32' W 123°09'612.7
2017-Oct-28 07:30N 37°35' W 123°02'612.9
2017-Oct-28 07:00N 37°39' W 122°55'613.0
2017-Oct-28 06:30N 37°42' W 122°48'612.4
2017-Oct-28 06:00N 37°44' W 122°41'5 9.7
2017-Oct-28 05:30N 37°47' W 122°36'713.3
2017-Oct-28 05:00N 37°50' W 122°28'4 8.5
2017-Oct-28 04:31N 37°49' W 122°23'510.0
2017-Oct-28 04:00N 37°44' W 122°21'0 0.3
2017-Oct-28 03:30N 37°44' W 122°21'0 0.0
2017-Oct-28 03:00N 37°44' W 122°21'0 0.1
2017-Oct-28 02:30N 37°44' W 122°21'0 0.2
2017-Oct-28 02:00N 37°44' W 122°21'0 0.1
2017-Oct-28 01:30N 37°44' W 122°21'0 0.1
2017-Oct-28 01:00N 37°44' W 122°21'0 0.0
2017-Oct-28 00:30N 37°44' W 122°21'0 0.0
2017-Oct-28 00:00N 37°44' W 122°21'0 0.0
2017-Oct-27 23:30N 37°44' W 122°21'0 0.1
2017-Oct-27 23:00N 37°44' W 122°21'0 0.0
2017-Oct-27 22:30N 37°44' W 122°21'0 0.0
2017-Oct-27 22:00N 37°44' W 122°21'0 0.1
2017-Oct-27 21:30N 37°44' W 122°21'0 0.0
2017-Oct-27 21:00N 37°44' W 122°21'0 0.0
2017-Oct-27 20:30N 37°44' W 122°21'0 0.1
2017-Oct-27 20:00N 37°44' W 122°21'0 0.2
2017-Oct-27 19:30N 37°44' W 122°21'0 0.1
2017-Oct-27 19:00N 37°44' W 122°21'0 0.2
2017-Oct-27 18:30N 37°44' W 122°21'0 0.7
2017-Oct-27 18:00N 37°44' W 122°21'3 5.9
2017-Oct-27 17:30N 37°47' W 122°22'4 8.0
2017-Oct-27 17:00N 37°50' W 122°24'5 9.5
2017-Oct-27 16:30N 37°55' W 122°25'1 1.3
2017-Oct-27 16:00N 37°55' W 122°25'0 0.0
2017-Oct-27 15:30N 37°55' W 122°25'0 0.0
2017-Oct-27 15:00N 37°55' W 122°25'0 0.0
2017-Oct-27 14:30N 37°55' W 122°25'0 0.1
2017-Oct-27 14:00N 37°55' W 122°25'0 0.1
2017-Oct-27 13:30N 37°55' W 122°25'0 0.0
2017-Oct-27 13:00N 37°55' W 122°25'0 0.1
2017-Oct-27 12:30N 37°55' W 122°25'0 0.1
2017-Oct-27 12:00N 37°55' W 122°25'0 0.0
2017-Oct-27 11:30N 37°55' W 122°25'0 0.0
2017-Oct-27 11:00N 37°55' W 122°25'0 0.0
2017-Oct-27 10:30N 37°55' W 122°25'0 0.0
2017-Oct-27 10:00N 37°55' W 122°25'0 0.1
2017-Oct-27 09:30N 37°55' W 122°25'0 0.1
2017-Oct-27 09:00N 37°55' W 122°25'0 0.0
2017-Oct-27 08:30N 37°55' W 122°25'0 0.0
2017-Oct-27 08:00N 37°55' W 122°25'0 0.0
2017-Oct-27 07:30N 37°55' W 122°25'0 0.0
2017-Oct-27 07:00N 37°55' W 122°25'0 0.0
2017-Oct-27 06:30N 37°55' W 122°25'0 0.0
2017-Oct-27 06:00N 37°55' W 122°25'0 0.0
2017-Oct-27 05:30N 37°55' W 122°25'0 0.0
2017-Oct-27 05:00N 37°55' W 122°25'0 0.0
2017-Oct-27 04:30N 37°55' W 122°25'0 0.0
2017-Oct-27 04:00N 37°55' W 122°25'0 0.0
2017-Oct-27 03:30N 37°55' W 122°25'0 0.0
2017-Oct-27 02:57N 37°55' W 122°25'0 0.0
2017-Oct-27 02:30N 37°55' W 122°25'0 0.0
2017-Oct-27 02:00N 37°55' W 122°25'0 0.1
2017-Oct-27 01:27N 37°55' W 122°25'0 0.1
2017-Oct-27 01:00N 37°55' W 122°25'0 0.0
2017-Oct-27 00:30N 37°55' W 122°25'0 0.0
2017-Oct-27 00:00N 37°55' W 122°25'0 0.0
2017-Oct-26 23:30N 37°55' W 122°25'0 0.0
2017-Oct-26 23:00N 37°55' W 122°25'0 0.0
2017-Oct-26 22:30N 37°55' W 122°25'0 0.0
2017-Oct-26 22:00N 37°55' W 122°25'0 0.0
2017-Oct-26 21:30N 37°55' W 122°25'0 0.0
2017-Oct-26 21:00N 37°55' W 122°25'0 0.0
2017-Oct-26 20:30N 37°55' W 122°25'0 0.0
2017-Oct-26 20:00N 37°55' W 122°25'0 0.0
2017-Oct-26 19:30N 37°55' W 122°25'0 0.0
2017-Oct-26 18:57N 37°55' W 122°25'0 0.0
2017-Oct-26 18:30N 37°55' W 122°25'0 0.0
2017-Oct-26 18:00N 37°55' W 122°25'0 0.0
2017-Oct-26 17:30N 37°55' W 122°25'0 0.1
2017-Oct-26 17:00N 37°55' W 122°25'0 0.1
2017-Oct-26 16:30N 37°55' W 122°25'0 0.0
2017-Oct-26 16:00N 37°55' W 122°25'0 0.0
2017-Oct-26 15:30N 37°55' W 122°25'0 0.0
2017-Oct-26 15:00N 37°55' W 122°25'0 0.0
2017-Oct-26 14:30N 37°55' W 122°25'0 0.0
2017-Oct-26 14:00N 37°55' W 122°25'0 0.0
2017-Oct-26 13:30N 37°55' W 122°25'0 0.0
2017-Oct-26 13:00N 37°55' W 122°25'0 0.1
2017-Oct-26 12:30N 37°55' W 122°25'0 0.1
2017-Oct-26 12:00N 37°55' W 122°25'0 0.0
2017-Oct-26 11:30N 37°55' W 122°25'0 0.1
2017-Oct-26 11:00N 37°55' W 122°25'0 0.1
2017-Oct-26 10:30N 37°55' W 122°25'0 0.0
2017-Oct-26 10:00N 37°55' W 122°25'0 0.1
2017-Oct-26 09:30N 37°55' W 122°25'0 0.1
2017-Oct-26 09:00N 37°55' W 122°25'0 0.0
2017-Oct-26 08:30N 37°55' W 122°25'0 0.0
2017-Oct-26 08:00N 37°55' W 122°25'0 0.0
2017-Oct-26 07:30N 37°55' W 122°25'0 0.0
2017-Oct-26 07:00N 37°55' W 122°25'0 0.0
2017-Oct-26 06:30N 37°55' W 122°25'0 0.0
2017-Oct-26 06:00N 37°55' W 122°25'0 0.0
2017-Oct-26 05:30N 37°55' W 122°25'0 0.0
2017-Oct-26 05:00N 37°55' W 122°25'0 0.0
2017-Oct-26 04:30N 37°55' W 122°25'0 0.0
2017-Oct-26 04:00N 37°55' W 122°25'0 0.0
2017-Oct-26 03:30N 37°55' W 122°25'0 0.0
2017-Oct-26 03:00N 37°55' W 122°25'0 0.0
2017-Oct-26 02:30N 37°55' W 122°25'0 0.0
2017-Oct-26 02:00N 37°55' W 122°25'0 0.1
2017-Oct-26 01:30N 37°55' W 122°25'0 0.0
2017-Oct-26 01:00N 37°55' W 122°25'0 0.1
2017-Oct-26 00:30N 37°55' W 122°25'0 0.0
2017-Oct-25 21:36N 37°55' W 122°25'0 0.5
2017-Oct-25 21:30N 37°55' W 122°25'0 0.0
2017-Oct-25 21:00N 37°55' W 122°25'0 0.1
2017-Oct-25 20:30N 37°55' W 122°25'0 0.0
2017-Oct-25 20:00N 37°55' W 122°25'0 0.0
2017-Oct-25 19:30N 37°55' W 122°25'0 0.0
2017-Oct-25 19:00N 37°55' W 122°25'0 0.0
2017-Oct-25 18:30N 37°55' W 122°25'0 0.0
2017-Oct-25 18:00N 37°55' W 122°25'0 0.0
2017-Oct-25 17:30N 37°55' W 122°25'0 0.0
2017-Oct-25 17:00N 37°55' W 122°25'0 0.0
2017-Oct-25 16:30N 37°55' W 122°25'0 0.0
2017-Oct-25 16:00N 37°55' W 122°25'0 0.0
2017-Oct-25 15:30N 37°55' W 122°25'0 0.0
2017-Oct-25 15:00N 37°55' W 122°25'0 0.1
2017-Oct-25 14:30N 37°55' W 122°25'0 0.0
2017-Oct-25 14:00N 37°55' W 122°25'0 0.1
2017-Oct-25 13:30N 37°55' W 122°25'0 0.0
2017-Oct-25 12:57N 37°55' W 122°25'0 0.0
2017-Oct-25 12:30N 37°55' W 122°25'0 0.0
2017-Oct-25 12:00N 37°55' W 122°25'0 0.0
2017-Oct-25 11:30N 37°55' W 122°25'0 0.0
2017-Oct-25 11:00N 37°55' W 122°25'0 0.0
2017-Oct-25 10:30N 37°55' W 122°25'0 0.1
2017-Oct-25 10:00N 37°55' W 122°25'0 0.0
2017-Oct-25 09:30N 37°55' W 122°25'0 0.1
2017-Oct-25 09:00N 37°55' W 122°25'0 0.0
2017-Oct-25 08:30N 37°55' W 122°25'0 0.0
2017-Oct-25 08:00N 37°55' W 122°25'0 0.0
2017-Oct-25 07:30N 37°55' W 122°25'0 0.0
2017-Oct-25 07:00N 37°55' W 122°25'0 0.0
2017-Oct-25 06:30N 37°55' W 122°25'1 1.1
2017-Oct-25 06:00N 37°55' W 122°25'5 9.3
2017-Oct-25 05:30N 37°51' W 122°24'4 8.7
2017-Oct-25 05:00N 37°49' W 122°29'611.8
2017-Oct-25 04:30N 37°46' W 122°36'510.0
2017-Oct-25 04:00N 37°43' W 122°41'612.4
2017-Oct-25 03:30N 37°37' W 122°40'612.7
2017-Oct-25 03:00N 37°31' W 122°40'612.8
2017-Oct-25 02:30N 37°24' W 122°40'612.3
2017-Oct-25 02:00N 37°18' W 122°40'611.9
2017-Oct-25 01:30N 37°12' W 122°40'612.3
2017-Oct-25 01:00N 37°06' W 122°40'612.3
2017-Oct-25 00:30N 36°60' W 122°40'612.5
2017-Oct-25 00:00N 36°54' W 122°40'612.7
2017-Oct-24 23:30N 36°47' W 122°40'9411.0
2017-Oct-24 14:57N 35°14' W 122°34'1312.8
2017-Oct-24 13:57N 35°01' W 122°32'612.8
2017-Oct-24 13:28N 34°55' W 122°31'612.6
2017-Oct-24 13:00N 34°49' W 122°31'613.0
2017-Oct-24 12:30N 34°42' W 122°30'612.8
2017-Oct-24 12:00N 34°36' W 122°30'712.9
2017-Oct-24 11:30N 34°29' W 122°30'712.9
2017-Oct-24 10:57N 34°22' W 122°30'913.1
2017-Oct-24 10:18N 34°14' W 122°29'413.1
2017-Oct-24 10:00N 34°10' W 122°28'612.9
2017-Oct-24 09:30N 34°04' W 122°28'713.1
2017-Oct-24 09:00N 33°57' W 122°27'713.1
2017-Oct-24 08:30N 33°51' W 122°27'612.9
2017-Oct-24 08:00N 33°44' W 122°27'613.0
2017-Oct-24 07:30N 33°38' W 122°26'613.0
2017-Oct-24 07:00N 33°31' W 122°25'612.8
2017-Oct-24 06:30N 33°25' W 122°25'612.6
2017-Oct-24 06:00N 33°19' W 122°24'612.6
2017-Oct-24 05:30N 33°12' W 122°24'612.6
2017-Oct-24 05:00N 33°06' W 122°23'612.7
2017-Oct-24 04:30N 32°60' W 122°23'612.0
2017-Oct-24 04:00N 32°54' W 122°23'4 8.6
2017-Oct-24 03:30N 32°49' W 122°23'510.4
2017-Oct-24 03:00N 32°44' W 122°22'612.3
2017-Oct-24 02:29N 32°38' W 122°22'612.2
2017-Oct-24 02:00N 32°32' W 122°21'612.0
2017-Oct-24 01:30N 32°26' W 122°20'612.1
2017-Oct-24 01:00N 32°20' W 122°20'611.8
2017-Oct-24 00:30N 32°14' W 122°19'612.0
2017-Oct-24 00:00N 32°08' W 122°19'611.8
2017-Oct-23 23:30N 32°02' W 122°19'611.7
2017-Oct-23 23:00N 31°56' W 122°18'611.9
2017-Oct-23 22:30N 31°50' W 122°18'612.0
2017-Oct-23 22:00N 31°44' W 122°17'611.9
2017-Oct-23 21:30N 31°38' W 122°17'13312.1
2017-Oct-23 10:33N 29°26' W 122°07'111.4
2017-Oct-23 10:30N 29°25' W 122°07'  

Dump ship's entire track history